Tuppers Plains, Ohio
Current Conditions -  °F | °C
As of 6:15 AM on Friday 24 Oct 2014 (Local Time) from KUNI Reporting Station
Clear Clear  
Wind Chill: 36°   Ceiling: Unl
Heat Index: 36°   Visibility: 10mi
Dew Point: 34°   Wind: 3mph
Humidity: 94%   Direction: 260°W
Pressure: 30.13"   Gusts: NA
Location:  39.17°N, 81.85°W
Report Text: KUNI 241015Z AUTO 26003KT 10SM CLR 02/01 A3013 RMK AO2 T00200011
Loading
Personal Weather Stations






























Interactive Weather Map
Tropical Storm Tracking
New forecast layout! Learn more

10-Day Weather Forecast

Advertisements
Track Severe Weather on mobile